Time;durP1;ratioP1;P1;durP2;ratioP2;P2;SDS_P1;SDS_P2;PMS_P1;PMS_P2;Temp;Humidity;BMP_temperature;BMP_pressure;BME280_temperature;BME280_humidity;BME280_pressure;Samples;Min_cycle;Max_cycle;Signal;HPM_P1;HPM_P2
2022/06/07 00:01:48;;;;;;;;;0.00;0.00;23.40;99.90;;;;;;4932389;28;8886;-51
2022/06/07 00:04:20;;;;;;;;;0.00;0.00;23.40;99.90;;;;;;4932530;28;8907;-49
2022/06/07 00:06:50;;;;;;;;;0.75;0.75;23.40;99.90;;;;;;4931566;28;8881;-51
2022/06/07 00:09:22;;;;;;;;;0.25;0.25;23.50;99.90;;;;;;4936173;28;8934;-51
2022/06/07 00:11:54;;;;;;;;;1.75;1.75;23.60;99.90;;;;;;4941277;28;9151;-53
2022/06/07 00:14:25;;;;;;;;;1.00;1.00;23.60;99.90;;;;;;4929228;28;9016;-49
2022/06/07 00:16:56;;;;;;;;;0.75;0.75;23.60;99.90;;;;;;4932424;28;8880;-48
2022/06/07 00:19:28;;;;;;;;;1.50;1.50;23.70;99.90;;;;;;4933408;28;8917;-52
2022/06/07 00:21:58;;;;;;;;;1.00;1.00;23.70;99.90;;;;;;4939169;28;8901;-48
2022/06/07 00:24:28;;;;;;;;;0.00;0.00;23.70;99.90;;;;;;4937302;28;8897;-52
2022/06/07 00:26:58;;;;;;;;;1.00;1.00;23.80;99.90;;;;;;4932336;28;8863;-50
2022/06/07 00:29:29;;;;;;;;;1.00;1.00;23.80;99.90;;;;;;4946221;28;8853;-49
2022/06/07 00:32:00;;;;;;;;;1.00;1.00;23.80;99.90;;;;;;4928886;28;8919;-50
2022/06/07 00:34:32;;;;;;;;;1.25;1.25;23.90;99.90;;;;;;4942490;28;8879;-53
2022/06/07 00:37:02;;;;;;;;;2.00;2.00;23.90;99.90;;;;;;4938783;28;8884;-50
2022/06/07 00:39:34;;;;;;;;;0.75;0.75;23.90;99.90;;;;;;4934492;28;8919;-50
2022/06/07 00:42:05;;;;;;;;;1.00;1.00;23.90;99.90;;;;;;4937435;28;9600;-50
2022/06/07 00:44:44;;;;;;;;;0.00;0.00;23.80;99.90;;;;;;4956381;28;8896;-48
2022/06/07 00:47:26;;;;;;;;;0.00;0.00;23.80;99.90;;;;;;4939751;28;8887;-51
2022/06/07 00:49:58;;;;;;;;;1.00;0.00;23.80;99.90;;;;;;4935701;28;8899;-47
2022/06/07 00:52:32;;;;;;;;;0.75;0.75;23.80;99.90;;;;;;4931398;28;8980;-51
2022/06/07 00:55:06;;;;;;;;;2.00;1.00;23.70;99.90;;;;;;4927425;28;8864;-51
2022/06/07 00:57:43;;;;;;;;;0.00;0.00;23.70;99.90;;;;;;4954432;28;8886;-51
2022/06/07 01:00:24;;;;;;;;;5.00;2.00;23.70;99.90;;;;;;4932453;28;8872;-47
2022/06/07 01:02:58;;;;;;;;;1.00;1.00;23.60;99.90;;;;;;4926985;28;9592;-52
2022/06/07 01:05:29;;;;;;;;;1.00;1.00;23.60;99.90;;;;;;4936081;28;8914;-50
2022/06/07 01:11:08;;;;;;;;;2.00;2.00;23.50;99.90;;;;;;4927802;28;8884;-51
2022/06/07 01:13:38;;;;;;;;;1.00;1.00;23.40;99.90;;;;;;4937722;28;9216;-50
2022/06/07 01:16:13;;;;;;;;;2.50;2.50;23.40;99.90;;;;;;4932134;28;8864;-51
2022/06/07 01:18:46;;;;;;;;;2.00;2.00;23.30;99.90;;;;;;4928974;28;8915;-48
2022/06/07 01:21:34;;;;;;;;;1.00;1.00;23.10;99.90;;;;;;4937547;28;9003;-52
2022/06/07 01:24:08;;;;;;;;;1.75;1.25;23.00;99.90;;;;;;4930974;28;8881;-52
2022/06/07 01:26:54;;;;;;;;;1.25;1.25;23.10;99.90;;;;;;4945502;28;8866;-49
2022/06/07 01:29:24;;;;;;;;;3.00;1.00;23.10;99.90;;;;;;4928794;28;8861;-49
2022/06/07 01:31:54;;;;;;;;;0.75;0.75;23.00;99.90;;;;;;4932430;28;9051;-51
2022/06/07 01:34:28;;;;;;;;;1.00;1.00;22.90;99.90;;;;;;4934389;28;8898;-51
2022/06/07 01:37:02;;;;;;;;;1.00;1.00;22.90;99.90;;;;;;4933831;28;9008;-48
2022/06/07 01:42:22;;;;;;;;;2.00;1.00;22.90;99.90;;;;;;4933178;28;8885;-49
2022/06/07 01:44:53;;;;;;;;;1.00;1.00;22.80;99.90;;;;;;4928123;28;8895;-48
2022/06/07 01:47:26;;;;;;;;;1.50;1.50;22.80;99.90;;;;;;4950392;28;8866;-52
2022/06/07 01:49:59;;;;;;;;;1.75;1.75;22.90;99.90;;;;;;4931378;28;8929;-51
2022/06/07 01:52:34;;;;;;;;;1.75;1.75;22.90;99.90;;;;;;4937080;28;8868;-49
2022/06/07 01:55:24;;;;;;;;;1.00;1.00;22.90;99.90;;;;;;4944643;28;8889;-51
2022/06/07 01:58:02;;;;;;;;;0.00;0.00;23.00;99.90;;;;;;4925982;28;8983;-52
2022/06/07 02:00:33;;;;;;;;;1.50;1.50;22.90;99.90;;;;;;4931284;28;9036;-48
2022/06/07 02:03:03;;;;;;;;;2.00;1.00;22.80;99.90;;;;;;4937670;28;8909;-49
2022/06/07 02:05:35;;;;;;;;;2.00;2.00;22.70;99.90;;;;;;4931540;28;8941;-51
2022/06/07 02:08:07;;;;;;;;;0.50;0.50;22.70;99.90;;;;;;4939114;28;8845;-49
2022/06/07 02:10:41;;;;;;;;;2.00;2.00;22.70;99.90;;;;;;4952528;28;8922;-49
2022/06/07 02:13:19;;;;;;;;;1.00;1.00;22.60;99.90;;;;;;4936181;28;9509;-48
2022/06/07 02:15:49;;;;;;;;;1.00;1.00;22.60;99.90;;;;;;4932705;28;8860;-51
2022/06/07 02:18:19;;;;;;;;;0.00;0.00;22.50;99.90;;;;;;4930204;28;8900;-49
2022/06/07 02:21:22;;;;;;;;;1.25;1.25;22.60;99.90;;;;;;4918899;28;8991;-50
2022/06/07 02:23:52;;;;;;;;;2.00;1.25;22.50;99.90;;;;;;4954552;28;9981;-50
2022/06/07 02:26:31;;;;;;;;;1.75;1.75;22.40;99.90;;;;;;4934835;28;8876;-53
2022/06/07 02:29:25;;;;;;;;;2.25;2.25;22.40;99.90;;;;;;4937696;28;8877;-51
2022/06/07 02:32:06;;;;;;;;;3.00;2.00;22.30;99.90;;;;;;4929262;28;9530;-51
2022/06/07 02:34:38;;;;;;;;;0.75;0.75;22.30;99.90;;;;;;4931101;28;8850;-48
2022/06/07 02:37:09;;;;;;;;;1.00;1.00;22.20;99.90;;;;;;4952216;28;8905;-51
2022/06/07 02:39:40;;;;;;;;;1.00;1.00;22.20;99.90;;;;;;4930766;28;8845;-51
2022/06/07 02:42:13;;;;;;;;;0.75;0.75;22.10;99.90;;;;;;4953410;28;8885;-52
2022/06/07 02:44:44;;;;;;;;;2.00;2.00;22.20;99.90;;;;;;4938438;28;8857;-51
2022/06/07 02:47:17;;;;;;;;;2.00;2.00;22.10;99.90;;;;;;4931984;28;9014;-51
2022/06/07 02:49:53;;;;;;;;;1.25;1.25;22.10;99.90;;;;;;4927028;28;8920;-52
2022/06/07 02:52:24;;;;;;;;;2.00;2.00;22.00;99.90;;;;;;4951609;28;9023;-50
2022/06/07 02:55:18;;;;;;;;;1.00;1.00;22.10;99.90;;;;;;4938723;28;8856;-52
2022/06/07 02:57:50;;;;;;;;;2.50;2.50;21.90;99.90;;;;;;4936289;28;8876;-52
2022/06/07 03:00:25;;;;;;;;;1.50;1.50;21.90;99.90;;;;;;4951773;28;8901;-53
2022/06/07 03:02:56;;;;;;;;;1.00;1.00;21.70;99.90;;;;;;4935456;28;8987;-50
2022/06/07 03:05:26;;;;;;;;;1.00;1.00;21.70;99.90;;;;;;4942820;28;8893;-51
2022/06/07 03:08:01;;;;;;;;;1.00;1.00;21.70;99.90;;;;;;4928327;28;8871;-53
2022/06/07 03:10:31;;;;;;;;;1.25;1.25;21.60;99.90;;;;;;4941964;28;8877;-47
2022/06/07 03:13:03;;;;;;;;;2.00;2.00;21.60;99.90;;;;;;4940291;28;8875;-53
2022/06/07 03:15:34;;;;;;;;;1.00;1.00;21.60;99.90;;;;;;4936310;28;8918;-53
2022/06/07 03:18:06;;;;;;;;;2.00;2.00;21.60;99.90;;;;;;4930338;28;8915;-51
2022/06/07 03:20:41;;;;;;;;;0.75;0.75;21.40;99.90;;;;;;4936279;28;8912;-50
2022/06/07 03:23:13;;;;;;;;;0.25;0.25;21.40;99.90;;;;;;4934518;28;9641;-52
2022/06/07 03:25:49;;;;;;;;;2.00;2.00;21.40;99.90;;;;;;4937996;28;8887;-50
2022/06/07 03:28:20;;;;;;;;;2.25;2.25;21.30;99.90;;;;;;4926705;28;8939;-48
2022/06/07 03:30:51;;;;;;;;;1.00;1.00;21.30;99.90;;;;;;4927511;28;8887;-51
2022/06/07 03:33:22;;;;;;;;;1.00;1.00;21.10;99.90;;;;;;4939313;28;8967;-50
2022/06/07 03:35:53;;;;;;;;;1.67;1.67;21.10;99.90;;;;;;4933966;28;9027;-53
2022/06/07 03:38:23;;;;;;;;;1.00;1.00;21.10;99.90;;;;;;4938992;28;9150;-51
2022/06/07 03:40:54;;;;;;;;;3.00;3.00;21.00;99.90;;;;;;4944405;28;8886;-46
2022/06/07 03:43:29;;;;;;;;;3.00;1.00;21.00;99.90;;;;;;4933313;28;9198;-48
2022/06/07 03:46:08;;;;;;;;;3.00;3.00;21.00;99.90;;;;;;4937037;28;9052;-49
2022/06/07 03:48:40;;;;;;;;;3.00;1.67;20.90;99.90;;;;;;4946536;28;9145;-53
2022/06/07 03:51:14;;;;;;;;;1.00;1.00;20.90;99.90;;;;;;4926300;28;8986;-51
2022/06/07 03:53:46;;;;;;;;;2.67;2.67;20.80;99.90;;;;;;4958338;28;9058;-49
2022/06/07 03:56:17;;;;;;;;;1.00;1.00;20.80;99.90;;;;;;4949474;28;9426;-49
2022/06/07 03:58:50;;;;;;;;;3.00;2.00;20.80;99.90;;;;;;4938296;28;9508;-52
2022/06/07 04:01:22;;;;;;;;;1.00;1.00;20.80;99.90;;;;;;4944122;28;9371;-47
2022/06/07 04:03:56;;;;;;;;;2.00;2.00;20.60;99.90;;;;;;4943187;28;9342;-50
2022/06/07 04:06:31;;;;;;;;;3.00;2.00;20.60;99.90;;;;;;4929646;28;9273;-51
2022/06/07 04:09:09;;;;;;;;;2.67;1.00;20.60;99.90;;;;;;4935343;28;9867;-51
2022/06/07 04:11:44;;;;;;;;;2.33;2.33;20.60;99.90;;;;;;4952257;28;9332;-51
2022/06/07 04:14:14;;;;;;;;;1.33;1.33;20.60;99.90;;;;;;4933470;28;9428;-48
2022/06/07 04:16:44;;;;;;;;;4.00;2.00;20.50;99.90;;;;;;4936994;28;10132;-51
2022/06/07 04:19:21;;;;;;;;;2.00;2.00;20.50;99.90;;;;;;4927154;28;9334;-49
2022/06/07 04:21:53;;;;;;;;;2.00;2.00;20.50;99.90;;;;;;4950511;28;9676;-52
2022/06/07 04:24:40;;;;;;;;;3.00;1.00;20.50;99.90;;;;;;4942582;28;11032;-50
2022/06/07 04:27:11;;;;;;;;;0.33;0.33;20.40;99.90;;;;;;4936866;28;9524;-48
2022/06/07 04:29:46;;;;;;;;;1.00;1.00;20.40;99.90;;;;;;4935150;28;10518;-49
2022/06/07 04:32:16;;;;;;;;;2.00;2.00;20.30;99.90;;;;;;4933993;28;9351;-48
2022/06/07 04:34:49;;;;;;;;;1.00;1.00;20.30;99.90;;;;;;4931284;28;9433;-50
2022/06/07 04:37:23;;;;;;;;;1.00;1.00;20.30;99.90;;;;;;4929746;28;9441;-47
2022/06/07 04:40:00;;;;;;;;;4.00;1.00;20.20;99.90;;;;;;4932254;28;9909;-53
2022/06/07 04:42:30;;;;;;;;;2.00;2.00;20.20;99.90;;;;;;4949387;28;9476;-50
2022/06/07 04:45:09;;;;;;;;;2.33;1.00;20.10;99.90;;;;;;4946321;28;9984;-48
2022/06/07 04:47:59;;;;;;;;;3.00;2.00;20.20;99.90;;;;;;4931270;28;9415;-50
2022/06/07 04:50:36;;;;;;;;;1.33;1.33;20.20;99.90;;;;;;4937816;28;10128;-52
2022/06/07 04:53:09;;;;;;;;;1.00;1.00;20.10;99.90;;;;;;4930584;28;9632;-47
2022/06/07 04:55:40;;;;;;;;;3.00;2.00;20.10;99.90;;;;;;4933744;28;9194;-52
2022/06/07 04:58:11;;;;;;;;;1.00;1.00;20.00;99.90;;;;;;4938363;28;9585;-49
2022/06/07 05:00:46;;;;;;;;;2.00;1.00;20.00;99.90;;;;;;4932322;28;9472;-52
2022/06/07 05:03:16;;;;;;;;;2.33;2.33;20.00;99.90;;;;;;4931984;28;9571;-51
2022/06/07 05:05:47;;;;;;;;;1.33;1.33;20.00;99.90;;;;;;4933474;28;9742;-52
2022/06/07 05:08:19;;;;;;;;;2.33;2.33;19.90;99.90;;;;;;4926233;28;9681;-49
2022/06/07 05:10:54;;;;;;;;;3.67;3.00;19.90;99.90;;;;;;4927226;28;9558;-50
2022/06/07 05:13:24;;;;;;;;;1.00;1.00;19.90;99.90;;;;;;4950589;28;9510;-47
2022/06/07 05:15:56;;;;;;;;;3.00;3.00;19.80;99.90;;;;;;4938499;28;9741;-50
2022/06/07 05:18:32;;;;;;;;;2.67;2.00;19.70;99.90;;;;;;4948431;28;9587;-51
2022/06/07 05:21:12;;;;;;;;;2.00;2.00;19.70;99.90;;;;;;4934577;28;9649;-48
2022/06/07 05:23:46;;;;;;;;;1.00;1.00;19.70;99.90;;;;;;4951091;28;9585;-52
2022/06/07 05:26:39;;;;;;;;;2.75;2.00;19.60;99.90;;;;;;4943020;28;9491;-50
2022/06/07 05:29:22;;;;;;;;;3.00;3.00;19.60;99.90;;;;;;4934313;28;9750;-51
2022/06/07 05:31:55;;;;;;;;;2.00;2.00;19.60;99.90;;;;;;4941358;28;9545;-50
2022/06/07 05:34:27;;;;;;;;;2.00;2.00;19.50;99.90;;;;;;4933617;28;9582;-52
2022/06/07 05:36:57;;;;;;;;;2.00;2.00;19.50;99.90;;;;;;4934563;28;9717;-50
2022/06/07 05:39:30;;;;;;;;;4.00;2.00;19.40;99.90;;;;;;4931142;28;9755;-52
2022/06/07 05:42:04;;;;;;;;;3.50;2.00;19.50;99.90;;;;;;4941747;28;9476;-50
2022/06/07 05:44:34;;;;;;;;;1.00;1.00;19.40;99.90;;;;;;4938778;28;9922;-51
2022/06/07 05:47:07;;;;;;;;;2.25;2.25;19.40;99.90;;;;;;4934121;28;9721;-52
2022/06/07 05:49:53;;;;;;;;;3.00;2.50;19.40;99.90;;;;;;4940814;28;9797;-50
2022/06/07 05:52:26;;;;;;;;;3.00;3.00;19.30;99.90;;;;;;4940782;28;9928;-53
2022/06/07 05:54:58;;;;;;;;;3.00;1.25;19.30;99.90;;;;;;4933999;28;9673;-51
2022/06/07 05:57:30;;;;;;;;;2.25;1.25;19.30;99.90;;;;;;4925364;28;9884;-51
2022/06/07 06:00:01;;;;;;;;;2.33;1.00;19.20;99.90;;;;;;4930789;28;9890;-51
2022/06/07 06:02:40;;;;;;;;;3.50;3.50;19.20;99.90;;;;;;4939839;28;9640;-49
2022/06/07 06:05:21;;;;;;;;;3.25;1.50;19.10;99.90;;;;;;4950728;28;9908;-52
2022/06/07 06:10:47;;;;;;;;;1.50;1.50;19.10;99.90;;;;;;4929519;28;9927;-52
2022/06/07 06:13:18;;;;;;;;;1.50;1.50;19.10;99.90;;;;;;4932775;28;9894;-47
2022/06/07 06:15:49;;;;;;;;;1.25;1.25;19.00;99.90;;;;;;4935646;28;9815;-52
2022/06/07 06:18:21;;;;;;;;;3.00;3.00;19.00;99.90;;;;;;4933348;28;9804;-50
2022/06/07 06:20:55;;;;;;;;;2.50;0.75;19.00;99.90;;;;;;4932622;28;9843;-52
2022/06/07 06:23:27;;;;;;;;;2.00;2.00;19.00;99.90;;;;;;4929842;28;10489;-47
2022/06/07 06:25:58;;;;;;;;;5.75;3.00;18.90;99.90;;;;;;4928366;28;10820;-49
2022/06/07 06:28:30;;;;;;;;;4.00;4.00;18.90;99.90;;;;;;4935075;28;11108;-51
2022/06/07 06:31:07;;;;;;;;;3.75;2.50;18.80;99.90;;;;;;4933786;28;10975;-49
2022/06/07 06:33:39;;;;;;;;;4.00;3.25;18.80;99.90;;;;;;4935456;28;10216;-51
2022/06/07 06:36:13;;;;;;;;;3.00;3.00;18.90;99.90;;;;;;4941430;28;10296;-51
2022/06/07 06:38:44;;;;;;;;;7.00;5.25;18.80;99.90;;;;;;4919903;28;12290;-51
2022/06/07 06:41:18;;;;;;;;;6.25;4.75;18.80;99.90;;;;;;4930632;28;10424;-51
2022/06/07 06:43:50;;;;;;;;;4.50;4.50;18.70;99.90;;;;;;4935231;28;10733;-50
2022/06/07 06:46:39;;;;;;;;;5.50;4.25;18.70;99.90;;;;;;4927076;28;10727;-51
2022/06/07 06:49:11;;;;;;;;;6.75;5.25;18.70;99.90;;;;;;4932060;28;10338;-48
2022/06/07 06:51:44;;;;;;;;;5.75;5.75;18.70;99.90;;;;;;4936665;28;10616;-49
2022/06/07 06:54:17;;;;;;;;;12.50;8.25;18.60;99.90;;;;;;4937708;28;11349;-51
2022/06/07 06:56:54;;;;;;;;;8.50;8.50;18.60;99.90;;;;;;4931548;28;10572;-52
2022/06/07 06:59:31;;;;;;;;;12.25;12.25;18.60;99.90;;;;;;4947356;28;10824;-51
2022/06/07 07:02:02;;;;;;;;;14.75;13.25;18.60;99.90;;;;;;4917842;28;10857;-50
2022/06/07 07:04:45;;;;;;;;;20.00;20.00;18.50;99.90;;;;;;4940174;28;10735;-51
2022/06/07 07:07:16;;;;;;;;;23.00;20.75;18.40;99.90;;;;;;4948765;28;10990;-50
2022/06/07 07:09:48;;;;;;;;;22.75;21.00;18.50;99.90;;;;;;4927937;28;11153;-49
2022/06/07 07:12:19;;;;;;;;;22.50;22.50;18.40;99.90;;;;;;4936083;28;11027;-52
2022/06/07 07:14:56;;;;;;;;;24.50;24.50;18.40;99.90;;;;;;4933061;28;11960;-50
2022/06/07 07:17:34;;;;;;;;;25.75;25.75;18.40;99.90;;;;;;4931862;28;11317;-52
2022/06/07 07:20:06;;;;;;;;;23.25;23.25;18.40;99.90;;;;;;4929989;28;11209;-49
2022/06/07 07:22:42;;;;;;;;;28.00;28.00;18.40;99.90;;;;;;4934967;28;10815;-52
2022/06/07 07:25:14;;;;;;;;;26.75;25.00;18.40;99.90;;;;;;4949993;28;11263;-51
2022/06/07 07:27:44;;;;;;;;;22.25;22.25;18.30;99.90;;;;;;4952836;28;11112;-48
2022/06/07 07:30:16;;;;;;;;;21.50;21.50;18.30;99.90;;;;;;4934239;28;10934;-51
2022/06/07 07:32:47;;;;;;;;;21.00;20.50;18.30;99.90;;;;;;4928940;28;11263;-52
2022/06/07 07:35:19;;;;;;;;;21.00;21.00;18.30;99.90;;;;;;4939065;28;11137;-50
2022/06/07 07:38:00;;;;;;;;;12.75;11.25;18.30;99.90;;;;;;4937538;28;11222;-49
2022/06/07 07:40:32;;;;;;;;;7.50;6.00;18.20;99.90;;;;;;4930462;28;11018;-52
2022/06/07 07:43:05;;;;;;;;;6.25;6.25;18.20;99.90;;;;;;4930404;28;10880;-47
2022/06/07 07:45:36;;;;;;;;;5.00;5.00;18.20;99.90;;;;;;4930358;28;11206;-50
2022/06/07 07:48:15;;;;;;;;;2.25;2.25;18.20;99.90;;;;;;4934610;28;11046;-51
2022/06/07 07:50:50;;;;;;;;;0.50;0.50;18.20;99.90;;;;;;4932894;28;10510;-49
2022/06/07 07:53:21;;;;;;;;;1.00;1.00;18.10;99.90;;;;;;4945425;28;10053;-50
2022/06/07 07:55:53;;;;;;;;;3.50;1.75;18.10;99.90;;;;;;4936610;28;10050;-52
2022/06/07 07:58:24;;;;;;;;;2.25;2.00;18.10;99.90;;;;;;4934561;28;10166;-52
2022/06/07 08:00:57;;;;;;;;;1.50;1.50;18.10;99.90;;;;;;4933353;28;10614;-51
2022/06/07 08:03:28;;;;;;;;;3.00;3.00;18.10;99.90;;;;;;4933100;28;10462;-49
2022/06/07 08:06:20;;;;;;;;;1.25;1.25;18.00;99.90;;;;;;4939325;28;10328;-51
2022/06/07 08:08:53;;;;;;;;;2.00;0.50;18.00;99.90;;;;;;4935422;28;10120;-51
2022/06/07 08:11:29;;;;;;;;;3.75;2.00;18.00;99.90;;;;;;4929550;28;10064;-49
2022/06/07 08:14:00;;;;;;;;;3.75;3.75;18.00;99.90;;;;;;4936518;28;10198;-51
2022/06/07 08:16:31;;;;;;;;;3.75;3.75;18.00;99.90;;;;;;4933105;28;10932;-51
2022/06/07 08:19:09;;;;;;;;;3.50;2.00;17.90;99.90;;;;;;4927386;28;10193;-49
2022/06/07 08:21:42;;;;;;;;;3.75;2.00;17.80;99.90;;;;;;4939630;28;10126;-52
2022/06/07 08:24:12;;;;;;;;;2.50;2.50;17.80;99.90;;;;;;4939858;28;10071;-51
2022/06/07 08:26:42;;;;;;;;;2.50;1.00;17.80;99.90;;;;;;4931422;28;10259;-52
2022/06/07 08:29:13;;;;;;;;;1.25;1.25;17.80;99.90;;;;;;4928401;28;10146;-50
2022/06/07 08:31:43;;;;;;;;;3.25;1.25;17.80;99.90;;;;;;4928815;28;10066;-51
2022/06/07 08:39:57;;;;;;;;;2.00;2.00;17.70;99.90;;;;;;4928715;28;10458;-51
2022/06/07 08:42:29;;;;;;;;;4.75;3.00;17.70;99.90;;;;;;4929961;28;10459;-49
2022/06/07 08:45:16;;;;;;;;;3.50;3.50;17.70;99.90;;;;;;4928409;28;10639;-51
2022/06/07 08:47:52;;;;;;;;;6.50;2.50;17.60;99.90;;;;;;4923746;28;11053;-51
2022/06/07 08:50:32;;;;;;;;;1.75;1.75;17.60;99.90;;;;;;4924750;28;11604;-51
2022/06/07 08:53:30;;;;;;;;;3.25;2.00;17.60;99.90;;;;;;4932377;28;10987;-48
2022/06/07 08:56:04;;;;;;;;;4.50;2.00;17.60;99.90;;;;;;4937251;28;10981;-50
2022/06/07 08:58:38;;;;;;;;;2.00;2.00;17.60;99.90;;;;;;4928279;28;11517;-53
2022/06/07 09:01:28;;;;;;;;;2.50;2.00;17.60;99.90;;;;;;4926252;28;11512;-48
2022/06/07 09:04:21;;;;;;;;;2.25;2.25;17.50;99.90;;;;;;4921637;28;11334;-50
2022/06/07 09:07:00;;;;;;;;;7.50;7.00;17.50;99.90;;;;;;4934341;28;11502;-52
2022/06/07 09:12:28;;;;;;;;;9.25;9.25;17.50;99.90;;;;;;4931001;28;11553;-48
2022/06/07 09:15:03;;;;;;;;;9.50;9.50;17.50;99.90;;;;;;4933425;28;11621;-51
2022/06/07 09:17:41;;;;;;;;;10.50;9.50;17.40;99.90;;;;;;4927066;28;11553;-48
2022/06/07 09:20:48;;;;;;;;;6.75;6.75;17.40;99.90;;;;;;4929391;28;11656;-53
2022/06/07 09:23:20;;;;;;;;;6.25;6.25;17.40;99.90;;;;;;4931416;28;11608;-51
2022/06/07 09:25:53;;;;;;;;;7.50;7.00;17.40;99.90;;;;;;4926537;28;11744;-51
2022/06/07 09:28:27;;;;;;;;;8.00;8.00;17.40;99.90;;;;;;4931145;28;12242;-50
2022/06/07 09:31:06;;;;;;;;;5.75;5.75;17.40;99.90;;;;;;4930472;28;11614;-48
2022/06/07 09:33:48;;;;;;;;;7.75;7.75;17.30;99.90;;;;;;4933041;28;11569;-47
2022/06/07 09:36:37;;;;;;;;;11.75;11.25;17.20;99.90;;;;;;4933483;28;12266;-48
2022/06/07 09:39:14;;;;;;;;;25.75;25.75;17.30;99.90;;;;;;4936372;28;11599;-48
2022/06/07 09:41:49;;;;;;;;;27.00;27.00;17.30;99.90;;;;;;4932189;28;11627;-52
2022/06/07 09:44:36;;;;;;;;;27.75;27.75;17.30;99.90;;;;;;4928618;28;11720;-52
2022/06/07 09:47:20;;;;;;;;;29.25;29.00;17.20;99.90;;;;;;4933615;28;11658;-50
2022/06/07 09:50:11;;;;;;;;;29.50;28.50;17.20;99.90;;;;;;4931482;28;11700;-50
2022/06/07 09:52:49;;;;;;;;;23.50;23.50;17.30;99.90;;;;;;4936406;28;11750;-52
2022/06/07 09:55:28;;;;;;;;;22.25;22.25;17.20;99.90;;;;;;4929653;28;11689;-49
2022/06/07 09:58:12;;;;;;;;;22.50;22.50;17.20;99.90;;;;;;4935161;28;12441;-50
2022/06/07 10:00:59;;;;;;;;;22.75;22.75;17.10;99.90;;;;;;4922765;28;12366;-50
2022/06/07 10:03:32;;;;;;;;;17.25;17.25;17.20;99.90;;;;;;4934363;28;11652;-51
2022/06/07 10:06:32;;;;;;;;;23.25;21.50;17.20;99.90;;;;;;4927405;28;11659;-47
2022/06/07 10:09:05;;;;;;;;;17.50;17.00;17.20;99.90;;;;;;4931219;28;11919;-50
2022/06/07 10:12:12;;;;;;;;;16.25;16.25;17.10;99.90;;;;;;4930621;28;11571;-51
2022/06/07 10:14:47;;;;;;;;;19.25;18.00;17.10;99.90;;;;;;4934641;28;11602;-51
2022/06/07 10:17:49;;;;;;;;;16.50;16.50;17.10;99.90;;;;;;4928257;28;11579;-50
2022/06/07 10:20:25;;;;;;;;;17.50;16.25;17.00;99.90;;;;;;4935132;28;11553;-49
2022/06/07 10:23:51;;;;;;;;;15.75;15.75;16.90;99.90;;;;;;4932478;28;11550;-53
2022/06/07 10:26:54;;;;;;;;;11.75;11.75;16.90;99.90;;;;;;4908872;28;11655;-50
2022/06/07 10:29:33;;;;;;;;;8.00;8.00;16.80;99.90;;;;;;4934300;28;11355;-52
2022/06/07 10:32:21;;;;;;;;;4.25;4.25;16.80;99.90;;;;;;4930148;28;11306;-52
2022/06/07 10:35:15;;;;;;;;;2.00;2.00;16.80;99.90;;;;;;4932531;28;11181;-48
2022/06/07 10:38:11;;;;;;;;;4.00;3.00;16.70;99.90;;;;;;4935341;28;11055;-48
2022/06/07 10:40:48;;;;;;;;;5.00;5.00;16.70;99.90;;;;;;4937503;28;10574;-50
2022/06/07 10:43:35;;;;;;;;;2.50;2.50;16.60;99.90;;;;;;4933411;28;10692;-52
2022/06/07 10:46:11;;;;;;;;;4.75;3.25;16.70;99.90;;;;;;4930785;28;10370;-49
2022/06/07 10:49:02;;;;;;;;;4.50;3.00;16.60;99.90;;;;;;4926492;28;10548;-51
2022/06/07 10:55:10;;;;;;;;;4.00;4.00;16.60;99.90;;;;;;4930519;28;10708;-48
2022/06/07 10:58:04;;;;;;;;;5.00;3.00;16.70;99.90;;;;;;4936217;28;10586;-48
2022/06/07 11:00:51;;;;;;;;;3.00;3.00;16.70;99.90;;;;;;4929865;28;10891;-52
2022/06/07 11:03:29;;;;;;;;;2.75;2.75;16.60;99.90;;;;;;4937374;28;10747;-51
2022/06/07 11:09:29;;;;;;;;;3.00;3.00;16.60;99.90;;;;;;4929334;28;10424;-50
2022/06/07 11:12:11;;;;;;;;;3.75;3.75;16.60;99.90;;;;;;4947197;28;11369;-52
2022/06/07 11:15:02;;;;;;;;;3.00;3.00;16.50;99.90;;;;;;4932776;28;10670;-52
2022/06/07 11:17:48;;;;;;;;;2.00;2.00;16.60;99.90;;;;;;4941254;28;10672;-52
2022/06/07 11:20:31;;;;;;;;;3.50;3.00;16.50;99.90;;;;;;4930123;28;10716;-51
2022/06/07 11:23:25;;;;;;;;;2.25;2.25;16.60;99.90;;;;;;4926773;28;10632;-52
2022/06/07 11:26:08;;;;;;;;;4.00;4.00;16.50;99.90;;;;;;4934997;28;10580;-49
2022/06/07 11:28:41;;;;;;;;;3.25;2.75;16.50;99.90;;;;;;4936004;28;12513;-49
2022/06/07 11:31:16;;;;;;;;;2.25;2.25;16.50;99.90;;;;;;4934604;28;10581;-51
2022/06/07 11:33:53;;;;;;;;;2.50;2.25;16.40;99.90;;;;;;4931921;28;10588;-52
2022/06/07 11:36:23;;;;;;;;;3.00;3.00;16.40;99.90;;;;;;4936301;28;10569;-50
2022/06/07 11:38:59;;;;;;;;;2.50;2.50;16.40;99.90;;;;;;4934649;28;10764;-49
2022/06/07 11:41:38;;;;;;;;;6.00;4.50;16.40;99.90;;;;;;4930631;28;11563;-51
2022/06/07 11:44:12;;;;;;;;;5.50;4.00;16.40;99.90;;;;;;4956521;28;10661;-54
2022/06/07 11:46:57;;;;;;;;;3.50;1.75;16.40;99.90;;;;;;4935411;28;11452;-53
2022/06/07 11:49:33;;;;;;;;;3.00;2.50;16.30;99.90;;;;;;4930998;28;10805;-51
2022/06/07 11:52:12;;;;;;;;;3.00;3.00;16.30;99.90;;;;;;4931440;28;11184;-48
2022/06/07 11:54:50;;;;;;;;;4.00;2.75;16.30;99.90;;;;;;4940692;28;10883;-48
2022/06/07 11:57:56;;;;;;;;;2.50;2.50;16.20;99.90;;;;;;4928516;28;10788;-50
2022/06/07 12:00:34;;;;;;;;;4.00;4.00;16.20;99.90;;;;;;4935567;28;10886;-49
2022/06/07 12:03:08;;;;;;;;;4.00;2.50;16.20;99.90;;;;;;4935934;28;10763;-51
2022/06/07 12:06:06;;;;;;;;;3.00;3.00;16.10;99.90;;;;;;4934568;28;10833;-53
2022/06/07 12:08:59;;;;;;;;;4.50;3.25;16.10;99.90;;;;;;4939643;28;10889;-50
2022/06/07 12:11:34;;;;;;;;;2.00;2.00;16.10;99.90;;;;;;4931954;28;10587;-52
2022/06/07 12:14:23;;;;;;;;;3.00;3.00;16.10;99.90;;;;;;4931499;28;10869;-50
2022/06/07 12:17:01;;;;;;;;;4.00;4.00;16.00;99.90;;;;;;4927424;28;10722;-50
2022/06/07 12:19:36;;;;;;;;;3.00;3.00;16.00;99.90;;;;;;4930045;28;10800;-47
2022/06/07 12:22:06;;;;;;;;;6.25;4.00;16.00;99.90;;;;;;4939654;28;10650;-49
2022/06/07 12:24:43;;;;;;;;;7.75;5.75;15.90;99.90;;;;;;4927728;28;11461;-48
2022/06/07 12:27:30;;;;;;;;;4.75;3.00;15.90;99.90;;;;;;4934824;28;10634;-49
2022/06/07 12:30:19;;;;;;;;;4.00;4.00;16.00;99.90;;;;;;4936874;28;10784;-51
2022/06/07 12:32:50;;;;;;;;;4.75;2.00;16.00;99.90;;;;;;4932144;28;10812;-49
2022/06/07 12:35:26;;;;;;;;;2.00;2.00;16.00;99.90;;;;;;4931485;28;10842;-52
2022/06/07 12:38:00;;;;;;;;;4.75;4.75;15.90;99.90;;;;;;4938710;28;11526;-49
2022/06/07 12:40:35;;;;;;;;;2.50;2.50;15.90;99.90;;;;;;4933440;28;10942;-52
2022/06/07 12:43:20;;;;;;;;;4.25;4.25;15.90;99.90;;;;;;4928303;28;10829;-51
2022/06/07 12:45:58;;;;;;;;;3.50;3.00;15.90;99.90;;;;;;4929663;28;10890;-49
2022/06/07 12:48:35;;;;;;;;;4.00;4.00;15.90;99.90;;;;;;4934146;28;10932;-51
2022/06/07 12:51:25;;;;;;;;;4.00;4.00;15.90;99.90;;;;;;4927232;28;11001;-47
2022/06/07 12:54:06;;;;;;;;;3.75;3.75;15.80;99.90;;;;;;4925919;28;10883;-51
2022/06/07 12:56:40;;;;;;;;;5.75;5.75;15.70;99.90;;;;;;4933112;28;10999;-50
2022/06/07 12:59:31;;;;;;;;;4.50;4.50;15.70;99.90;;;;;;4934516;28;11836;-51
2022/06/07 13:02:02;;;;;;;;;3.75;2.00;15.70;99.90;;;;;;4926635;28;10897;-51
2022/06/07 13:04:57;;;;;;;;;5.00;3.50;15.70;99.90;;;;;;4920936;28;10910;-50
2022/06/07 13:07:31;;;;;;;;;5.25;5.25;15.70;99.90;;;;;;4930274;28;12349;-52
2022/06/07 13:10:19;;;;;;;;;3.75;3.75;15.70;99.90;;;;;;4934359;28;11757;-49
2022/06/07 13:12:53;;;;;;;;;5.75;4.00;15.60;99.90;;;;;;4927986;28;10985;-50
2022/06/07 13:15:27;;;;;;;;;4.00;4.00;15.60;99.90;;;;;;4933461;28;11004;-48
2022/06/07 13:18:16;;;;;;;;;6.00;3.00;15.60;99.90;;;;;;4926517;28;10741;-48
2022/06/07 13:20:50;;;;;;;;;4.00;4.00;15.60;99.90;;;;;;4935513;28;10919;-47
2022/06/07 13:23:28;;;;;;;;;4.75;3.00;15.60;99.90;;;;;;4930140;28;10851;-50
2022/06/07 13:26:23;;;;;;;;;3.50;3.50;15.60;99.90;;;;;;4934948;28;11842;-51
2022/06/07 13:29:13;;;;;;;;;3.00;3.00;15.60;99.90;;;;;;4930352;28;11034;-48
2022/06/07 13:31:56;;;;;;;;;5.50;5.50;15.60;99.90;;;;;;4931922;28;10873;-49
2022/06/07 13:34:35;;;;;;;;;4.75;4.50;15.60;99.90;;;;;;4935787;28;10951;-48
2022/06/07 13:37:12;;;;;;;;;4.50;4.00;15.60;99.90;;;;;;4928220;28;11035;-49
2022/06/07 13:40:17;;;;;;;;;4.75;4.50;15.60;99.90;;;;;;4926965;28;11823;-51
2022/06/07 13:43:13;;;;;;;;;4.00;4.00;15.70;99.90;;;;;;4938077;28;10948;-51
2022/06/07 13:45:47;;;;;;;;;4.00;4.00;15.70;99.90;;;;;;4930894;28;11009;-50
2022/06/07 13:48:21;;;;;;;;;3.50;3.50;15.70;99.90;;;;;;4922892;28;11037;-47
2022/06/07 13:53:46;;;;;;;;;4.50;4.50;15.70;99.90;;;;;;4934776;28;10974;-49
2022/06/07 13:56:18;;;;;;;;;3.50;3.50;15.70;99.90;;;;;;4936136;28;10955;-51
2022/06/07 13:58:56;;;;;;;;;6.25;6.25;15.70;99.90;;;;;;4924877;28;10829;-51
2022/06/07 14:01:33;;;;;;;;;4.50;4.50;15.80;99.90;;;;;;4940173;28;10887;-50
2022/06/07 14:04:32;;;;;;;;;5.25;5.25;15.80;99.90;;;;;;4933220;28;10788;-48
2022/06/07 14:07:02;;;;;;;;;4.00;4.00;15.80;99.90;;;;;;4936505;28;10788;-51